createdAt,value
2018-10-21T00:00:40.125Z,21.10
2018-10-21T00:03:07.286Z,21.23
2018-10-21T00:05:34.355Z,21.20
2018-10-21T00:08:01.509Z,22.47
2018-10-21T00:10:28.621Z,20.97
2018-10-21T00:12:55.699Z,21.10
2018-10-21T00:15:22.946Z,20.80
2018-10-21T00:17:49.908Z,20.93
2018-10-21T00:20:17.025Z,22.50
2018-10-21T00:22:44.101Z,23.27
2018-10-21T00:25:11.216Z,22.30
2018-10-21T00:27:38.321Z,21.63
2018-10-21T00:30:05.907Z,20.87
2018-10-21T00:32:38.760Z,20.63
2018-10-21T00:35:06.708Z,22.03
2018-10-21T00:37:33.811Z,21.47
2018-10-21T00:40:00.915Z,23.20
2018-10-21T00:42:28.013Z,21.50
2018-10-21T00:44:55.219Z,22.47
2018-10-21T00:47:22.288Z,20.37
2018-10-21T00:49:49.403Z,22.10
2018-10-21T00:52:16.484Z,22.93
2018-10-21T00:54:43.584Z,20.90
2018-10-21T00:57:10.784Z,21.10
2018-10-21T00:59:37.780Z,21.47
2018-10-21T01:02:05.592Z,22.33
2018-10-21T01:04:32.700Z,21.40
2018-10-21T01:06:59.832Z,21.63
2018-10-21T01:09:26.921Z,21.57
2018-10-21T01:11:54.029Z,22.40
2018-10-21T01:14:21.188Z,22.33
2018-10-21T01:16:48.276Z,22.57
2018-10-21T01:19:15.380Z,21.17
2018-10-21T01:21:42.477Z,21.97
2018-10-21T01:24:09.561Z,20.97
2018-10-21T01:26:36.641Z,20.90
2018-10-21T01:29:03.755Z,21.73
2018-10-21T01:31:30.844Z,22.43
2018-10-21T01:33:57.964Z,22.13
2018-10-21T01:36:25.522Z,21.03
2018-10-21T01:38:52.240Z,20.57
2018-10-21T01:41:19.345Z,20.27
2018-10-21T01:43:46.429Z,21.00
2018-10-21T01:46:13.509Z,22.07
2018-10-21T01:48:40.616Z,20.57
2018-10-21T01:51:07.728Z,21.43
2018-10-21T01:53:34.827Z,19.40
2018-10-21T01:56:01.920Z,20.30
2018-10-21T01:58:29.008Z,20.80
2018-10-21T02:00:56.121Z,20.93
2018-10-21T02:03:23.212Z,20.90
2018-10-21T02:05:50.315Z,20.43
2018-10-21T02:08:17.425Z,20.53
2018-10-21T02:10:44.535Z,20.43
2018-10-21T02:13:11.659Z,21.57
2018-10-21T02:15:38.752Z,22.30
2018-10-21T02:18:05.877Z,21.77
2018-10-21T02:20:33.024Z,21.87
2018-10-21T02:23:00.124Z,21.53
2018-10-21T02:25:27.269Z,21.03
2018-10-21T02:27:54.392Z,22.33
2018-10-21T02:30:23.245Z,20.80
2018-10-21T02:32:51.140Z,21.60
2018-10-21T02:35:18.736Z,21.57
2018-10-21T02:37:46.253Z,22.87
2018-10-21T02:41:44.634Z,19.60
2018-10-21T02:44:21.377Z,20.77
2018-10-21T02:46:49.613Z,22.03
2018-10-21T02:49:17.261Z,20.07
2018-10-21T02:52:14.998Z,22.70
2018-10-21T02:54:42.888Z,20.30
2018-10-21T02:57:10.994Z,21.80
2018-10-21T02:59:38.173Z,22.77
2018-10-21T03:02:05.337Z,20.73
2018-10-21T03:04:32.568Z,19.83
2018-10-21T03:06:59.744Z,21.10
2018-10-21T03:09:27.237Z,21.03
2018-10-21T03:11:54.477Z,19.60
2018-10-21T03:14:21.597Z,21.97
2018-10-21T03:16:48.706Z,19.73
2018-10-21T03:19:15.814Z,19.83
2018-10-21T03:21:42.906Z,19.47
2018-10-21T03:24:10.008Z,19.47
2018-10-21T03:26:37.108Z,19.87
2018-10-21T03:29:04.259Z,19.57
2018-10-21T03:31:31.333Z,19.67
2018-10-21T03:33:58.573Z,19.90
2018-10-21T03:36:25.556Z,19.80
2018-10-21T03:38:52.692Z,18.70
2018-10-21T03:41:19.788Z,19.50
2018-10-21T03:43:46.907Z,18.27
2018-10-21T03:46:14.886Z,18.70
2018-10-21T03:48:42.008Z,17.67
2018-10-21T03:51:09.204Z,17.97
2018-10-21T03:53:36.284Z,17.00
2018-10-21T03:56:03.408Z,17.40
2018-10-21T03:58:30.564Z,16.87
2018-10-21T04:00:57.652Z,18.23
2018-10-21T04:03:24.754Z,18.80
2018-10-21T04:05:51.857Z,18.53
2018-10-21T04:08:18.941Z,17.27
2018-10-21T04:10:46.037Z,17.67
2018-10-21T04:13:13.137Z,16.47
2018-10-21T04:15:40.255Z,16.77
2018-10-21T04:18:07.369Z,16.83
2018-10-21T04:20:34.472Z,15.87
2018-10-21T04:23:02.568Z,16.77
2018-10-21T04:25:30.840Z,16.20
2018-10-21T04:27:58.781Z,16.00
2018-10-21T04:30:28.013Z,15.47
2018-10-21T04:32:58.157Z,15.40
2018-10-21T04:35:25.298Z,15.17
2018-10-21T04:40:09.285Z,15.53
2018-10-21T04:42:36.436Z,15.43
2018-10-21T04:45:03.948Z,16.10
2018-10-21T04:47:31.416Z,15.93
2018-10-21T04:49:58.548Z,16.90
2018-10-21T04:52:26.338Z,14.50
2018-10-21T04:54:53.449Z,16.60
2018-10-21T04:57:20.544Z,15.83
2018-10-21T04:59:47.644Z,16.85
2018-10-21T05:02:14.740Z,15.80
2018-10-21T05:04:41.828Z,16.73
2018-10-21T05:07:08.977Z,15.10
2018-10-21T05:09:36.073Z,15.50
2018-10-21T05:12:03.228Z,14.70
2018-10-21T05:14:30.313Z,16.20
2018-10-21T05:16:57.421Z,16.03
2018-10-21T05:19:24.597Z,16.73
2018-10-21T05:21:51.689Z,16.20
2018-10-21T05:24:18.764Z,14.90
2018-10-21T05:26:45.849Z,16.50
2018-10-21T05:29:12.969Z,17.67
2018-10-21T05:31:40.056Z,15.70
2018-10-21T05:34:07.281Z,18.10
2018-10-21T05:36:34.413Z,19.40
2018-10-21T05:39:01.524Z,18.70
2018-10-21T05:41:28.625Z,17.93
2018-10-21T05:43:55.732Z,19.87
2018-10-21T05:46:38.590Z,20.40
2018-10-21T05:49:05.826Z,19.13
2018-10-21T05:51:32.916Z,20.65
2018-10-21T05:54:00.009Z,19.53
2018-10-21T05:56:27.111Z,23.93
2018-10-21T05:58:54.192Z,21.23
2018-10-21T06:01:21.293Z,20.57
2018-10-21T06:03:48.397Z,20.10
2018-10-21T06:06:15.485Z,23.87
2018-10-21T06:08:42.574Z,21.53
2018-10-21T06:11:09.665Z,20.50
2018-10-21T06:13:36.749Z,21.27
2018-10-21T06:16:03.918Z,20.87
2018-10-21T06:18:30.964Z,20.33
2018-10-21T06:21:02.192Z,20.67
2018-10-21T06:23:29.319Z,20.53
2018-10-21T06:25:56.431Z,21.90
2018-10-21T06:28:23.548Z,22.97
2018-10-21T06:30:50.656Z,22.13
2018-10-21T06:33:17.864Z,20.93
2018-10-21T06:35:44.852Z,20.73
2018-10-21T06:38:11.944Z,22.67
2018-10-21T06:40:39.036Z,24.43
2018-10-21T06:43:06.232Z,22.90
2018-10-21T06:45:33.374Z,22.03
2018-10-21T06:48:00.442Z,22.77
2018-10-21T06:50:27.536Z,22.80
2018-10-21T06:52:54.636Z,22.83
2018-10-21T06:55:21.748Z,21.97
2018-10-21T06:57:48.875Z,22.00
2018-10-21T07:00:15.945Z,20.93
2018-10-21T07:02:43.057Z,23.63
2018-10-21T07:05:22.338Z,23.53
2018-10-21T07:07:50.015Z,23.57
2018-10-21T07:10:17.750Z,20.63
2018-10-21T07:12:44.785Z,21.70
2018-10-21T07:15:11.902Z,20.90
2018-10-21T07:17:39.004Z,20.87
2018-10-21T07:20:06.209Z,22.40
2018-10-21T07:22:33.296Z,23.03
2018-10-21T07:25:00.417Z,26.40
2018-10-21T07:27:27.561Z,26.67
2018-10-21T07:29:54.665Z,27.10
2018-10-21T07:32:21.769Z,26.50
2018-10-21T07:34:48.876Z,26.70
2018-10-21T07:37:15.991Z,27.43
2018-10-21T07:39:43.088Z,28.07
2018-10-21T07:42:10.193Z,29.60
2018-10-21T07:44:37.264Z,29.30
2018-10-21T07:47:04.729Z,29.33
2018-10-21T07:49:31.829Z,31.97
2018-10-21T07:51:58.966Z,33.20
2018-10-21T07:54:26.038Z,32.97
2018-10-21T07:56:53.140Z,32.73
2018-10-21T07:59:20.284Z,32.13
2018-10-21T08:01:47.444Z,31.87
2018-10-21T08:04:14.635Z,34.93
2018-10-21T08:06:53.272Z,34.47
2018-10-21T08:09:20.360Z,34.23
2018-10-21T08:11:47.453Z,33.47
2018-10-21T08:14:14.540Z,31.87
2018-10-21T08:16:41.636Z,32.30
2018-10-21T08:19:08.728Z,31.57
2018-10-21T08:21:35.832Z,32.43
2018-10-21T08:24:02.948Z,31.33
2018-10-21T08:26:30.062Z,31.97
2018-10-21T08:28:57.157Z,34.17
2018-10-21T08:31:24.277Z,33.23
2018-10-21T08:33:51.383Z,33.07
2018-10-21T08:36:18.489Z,32.87
2018-10-21T08:38:45.564Z,32.47
2018-10-21T08:41:12.652Z,33.27
2018-10-21T08:43:39.768Z,32.63
2018-10-21T08:46:06.910Z,32.70
2018-10-21T08:48:34.040Z,31.43
2018-10-21T08:51:01.122Z,32.60
2018-10-21T08:53:28.224Z,30.57
2018-10-21T08:55:55.335Z,32.67
2018-10-21T08:58:22.409Z,33.37
2018-10-21T09:00:49.528Z,32.67
2018-10-21T09:03:16.608Z,33.90
2018-10-21T09:05:43.712Z,33.23
2018-10-21T09:08:10.830Z,34.10
2018-10-21T09:10:37.973Z,32.83
2018-10-21T09:13:05.115Z,33.50
2018-10-21T09:15:32.283Z,32.93
2018-10-21T09:17:59.362Z,33.17
2018-10-21T09:20:26.479Z,32.83
2018-10-21T09:22:53.600Z,31.63
2018-10-21T09:25:20.700Z,31.57
2018-10-21T09:27:47.911Z,29.40
2018-10-21T09:30:16.814Z,29.97
2018-10-21T09:32:43.917Z,29.17
2018-10-21T09:35:12.533Z,29.00
2018-10-21T09:37:40.404Z,26.55
2018-10-21T09:40:09.444Z,27.50
2018-10-21T09:42:36.491Z,25.70
2018-10-21T09:45:04.425Z,26.50
2018-10-21T09:47:31.529Z,26.20
2018-10-21T09:49:58.704Z,26.17
2018-10-21T09:52:25.764Z,25.10
2018-10-21T09:54:52.853Z,26.30
2018-10-21T09:57:20.028Z,25.10
2018-10-21T09:59:47.116Z,23.63
2018-10-21T10:02:19.833Z,23.47
2018-10-21T10:04:46.941Z,23.10
2018-10-21T10:07:14.100Z,23.07
2018-10-21T10:09:41.165Z,21.80
2018-10-21T10:12:08.272Z,23.73
2018-10-21T10:14:35.361Z,22.47
2018-10-21T10:17:02.498Z,23.63
2018-10-21T10:19:29.586Z,24.93
2018-10-21T10:21:56.761Z,24.30
2018-10-21T10:24:23.861Z,24.97
2018-10-21T10:26:50.945Z,24.07
2018-10-21T10:29:18.048Z,24.20
2018-10-21T10:31:45.157Z,24.10
2018-10-21T10:34:12.335Z,24.53
2018-10-21T10:36:39.405Z,23.83
2018-10-21T10:39:08.668Z,23.63
2018-10-21T10:41:35.888Z,24.23
2018-10-21T10:44:03.228Z,24.97
2018-10-21T10:46:30.313Z,26.13
2018-10-21T10:48:57.418Z,25.97
2018-10-21T10:51:24.536Z,25.80
2018-10-21T10:53:51.633Z,27.47
2018-10-21T10:56:18.704Z,25.53
2018-10-21T10:58:45.856Z,27.87
2018-10-21T11:01:13.038Z,26.80
2018-10-21T11:03:40.074Z,25.60
2018-10-21T11:06:07.178Z,25.90
2018-10-21T11:08:34.269Z,25.37
2018-10-21T11:11:01.365Z,23.23
2018-10-21T11:13:28.455Z,25.17
2018-10-21T11:15:55.572Z,22.60
2018-10-21T11:18:22.666Z,25.30
2018-10-21T11:20:49.757Z,24.13
2018-10-21T11:23:16.870Z,24.53
2018-10-21T11:25:43.960Z,23.67
2018-10-21T11:28:11.120Z,23.10
2018-10-21T11:30:38.174Z,23.30
2018-10-21T11:33:05.682Z,23.53
2018-10-21T11:35:32.821Z,22.73
2018-10-21T11:37:59.900Z,21.87
2018-10-21T11:40:26.980Z,23.93
2018-10-21T11:42:54.090Z,22.83
2018-10-21T11:45:21.150Z,23.90
2018-10-21T11:47:48.245Z,23.27
2018-10-21T11:50:15.336Z,21.37
2018-10-21T11:52:42.508Z,22.33
2018-10-21T11:55:09.836Z,21.80
2018-10-21T11:57:36.933Z,21.57
2018-10-21T12:00:04.537Z,20.53
2018-10-21T12:02:31.639Z,19.00
2018-10-21T12:04:58.719Z,20.17
2018-10-21T12:07:25.826Z,19.10
2018-10-21T12:09:52.913Z,19.13
2018-10-21T12:12:20.008Z,20.07
2018-10-21T12:14:47.109Z,19.83
2018-10-21T12:17:14.204Z,18.93
2018-10-21T12:19:41.365Z,17.00
2018-10-21T12:22:08.523Z,16.43
2018-10-21T12:24:35.518Z,16.30
2018-10-21T12:27:02.636Z,16.73
2018-10-21T12:29:29.716Z,15.20
2018-10-21T12:31:56.816Z,13.70
2018-10-21T12:34:23.917Z,13.93
2018-10-21T12:36:51.012Z,13.50
2018-10-21T12:39:18.121Z,12.73
2018-10-21T12:41:45.219Z,13.30
2018-10-21T12:44:12.313Z,14.40
2018-10-21T12:46:39.496Z,14.57
2018-10-21T12:49:06.617Z,13.83
2018-10-21T12:51:33.748Z,14.10
2018-10-21T12:54:00.906Z,14.93
2018-10-21T12:56:27.938Z,16.63
2018-10-21T12:58:55.045Z,16.00
2018-10-21T13:01:22.140Z,13.90
2018-10-21T13:03:49.228Z,14.00
2018-10-21T13:06:16.320Z,12.23
2018-10-21T13:08:43.420Z,10.73
2018-10-21T13:11:10.519Z,13.60
2018-10-21T13:13:37.801Z,12.50
2018-10-21T13:16:04.985Z,12.03
2018-10-21T13:18:32.032Z,12.33
2018-10-21T13:20:59.136Z,14.03
2018-10-21T13:23:26.233Z,13.23
2018-10-21T13:25:53.313Z,12.63
2018-10-21T13:28:20.823Z,13.57
2018-10-21T13:30:47.813Z,12.67
2018-10-21T13:33:14.894Z,12.70
2018-10-21T13:35:41.985Z,13.37
2018-10-21T13:38:09.098Z,12.70
2018-10-21T13:40:36.276Z,11.97
2018-10-21T13:43:03.852Z,11.43
2018-10-21T13:45:30.932Z,12.17
2018-10-21T13:47:58.006Z,12.67
2018-10-21T13:50:25.112Z,12.17
2018-10-21T13:52:52.206Z,12.73
2018-10-21T13:55:19.305Z,12.30
2018-10-21T13:57:46.387Z,11.60
2018-10-21T14:00:13.505Z,11.57
2018-10-21T14:02:40.605Z,12.23
2018-10-21T14:05:08.270Z,10.30
2018-10-21T14:07:35.393Z,10.17
2018-10-21T14:10:02.613Z,11.00
2018-10-21T14:12:29.740Z,11.47
2018-10-21T14:14:56.849Z,11.00
2018-10-21T14:17:23.944Z,9.87
2018-10-21T14:19:51.044Z,8.80
2018-10-21T14:22:18.251Z,10.13
2018-10-21T14:24:45.371Z,10.30
2018-10-21T14:27:12.497Z,9.43
2018-10-21T14:29:39.638Z,12.07
2018-10-21T14:32:06.744Z,10.77
2018-10-21T14:34:33.861Z,9.83
2018-10-21T14:37:00.955Z,8.13
2018-10-21T14:39:28.041Z,8.23
2018-10-21T14:41:55.158Z,8.43
2018-10-21T14:44:22.252Z,8.00
2018-10-21T14:46:49.332Z,6.80
2018-10-21T14:49:16.429Z,7.83
2018-10-21T14:51:43.516Z,7.07
2018-10-21T14:54:10.649Z,7.10
2018-10-21T14:56:37.680Z,7.43
2018-10-21T14:59:04.856Z,7.57
2018-10-21T15:01:31.940Z,7.00
2018-10-21T15:03:59.073Z,7.43
2018-10-21T15:06:26.145Z,8.07
2018-10-21T15:08:53.236Z,8.17
2018-10-21T15:11:20.336Z,7.60
2018-10-21T15:13:47.428Z,8.20
2018-10-21T15:16:14.559Z,7.70
2018-10-21T15:18:41.620Z,8.43
2018-10-21T15:21:08.716Z,7.87
2018-10-21T15:23:35.831Z,8.67
2018-10-21T15:26:03.007Z,8.03
2018-10-21T15:28:30.045Z,8.40
2018-10-21T15:30:57.150Z,9.17
2018-10-21T15:33:24.231Z,8.53
2018-10-21T15:35:51.329Z,9.30
2018-10-21T15:38:18.537Z,9.53
2018-10-21T15:40:45.568Z,9.40
2018-10-21T15:43:12.672Z,8.10
2018-10-21T15:45:39.820Z,7.27
2018-10-21T15:48:06.924Z,7.37
2018-10-21T15:50:34.088Z,8.33
2018-10-21T15:53:01.137Z,8.00
2018-10-21T15:55:28.338Z,7.20
2018-10-21T15:57:55.515Z,6.70
2018-10-21T16:00:22.580Z,6.73
2018-10-21T16:02:49.660Z,6.80
2018-10-21T16:05:16.744Z,6.60
2018-10-21T16:07:43.832Z,6.03
2018-10-21T16:10:10.968Z,6.40
2018-10-21T16:12:38.474Z,6.40
2018-10-21T16:15:11.255Z,6.70
2018-10-21T16:17:38.336Z,7.13
2018-10-21T16:20:05.781Z,6.63
2018-10-21T16:22:32.912Z,6.40
2018-10-21T16:24:59.990Z,6.07
2018-10-21T16:27:27.153Z,5.43
2018-10-21T16:29:54.273Z,5.73
2018-10-21T16:32:21.384Z,5.20
2018-10-21T16:34:48.448Z,4.60
2018-10-21T16:37:15.549Z,4.53
2018-10-21T16:39:42.648Z,4.50
2018-10-21T16:42:09.741Z,4.50
2018-10-21T16:44:36.832Z,4.80
2018-10-21T16:47:04.322Z,4.90
2018-10-21T16:49:31.427Z,5.77
2018-10-21T16:51:58.529Z,5.77
2018-10-21T16:54:25.622Z,5.73
2018-10-21T16:56:52.704Z,5.40
2018-10-21T16:59:19.956Z,6.13
2018-10-21T17:01:46.948Z,5.37
2018-10-21T17:04:14.061Z,5.47
2018-10-21T17:06:41.152Z,4.90
2018-10-21T17:09:10.048Z,6.07
2018-10-21T17:11:37.064Z,5.93
2018-10-21T17:14:04.173Z,6.20
2018-10-21T17:16:31.258Z,6.07
2018-10-21T17:18:58.365Z,6.40
2018-10-21T17:21:25.467Z,7.07
2018-10-21T17:23:52.541Z,6.77
2018-10-21T17:26:19.656Z,6.93
2018-10-21T17:28:46.829Z,7.57
2018-10-21T17:31:13.863Z,7.27
2018-10-21T17:33:40.948Z,6.67
2018-10-21T17:36:08.044Z,6.77
2018-10-21T17:38:35.128Z,7.40
2018-10-21T17:41:02.241Z,6.80
2018-10-21T17:43:29.329Z,7.30
2018-10-21T17:45:56.504Z,7.07
2018-10-21T17:48:23.599Z,6.97
2018-10-21T17:50:50.696Z,6.30
2018-10-21T17:53:17.799Z,6.10
2018-10-21T17:55:44.876Z,6.03
2018-10-21T17:58:12.079Z,6.10
2018-10-21T18:00:39.188Z,6.63
2018-10-21T18:03:06.284Z,6.47
2018-10-21T18:05:33.377Z,7.10
2018-10-21T18:08:00.534Z,7.23
2018-10-21T18:10:27.672Z,6.73
2018-10-21T18:12:54.777Z,7.03
2018-10-21T18:15:21.848Z,7.40
2018-10-21T18:17:48.952Z,9.13
2018-10-21T18:20:16.058Z,9.30
2018-10-21T18:22:43.162Z,9.30
2018-10-21T18:25:10.339Z,8.70
2018-10-21T18:27:37.479Z,13.07
2018-10-21T18:30:06.633Z,10.80
2018-10-21T18:32:33.760Z,11.07
2018-10-21T18:35:00.853Z,11.57
2018-10-21T18:37:27.937Z,10.20
2018-10-21T18:39:55.026Z,10.80
2018-10-21T18:42:22.105Z,10.90
2018-10-21T18:44:49.268Z,11.60
2018-10-21T18:47:16.345Z,11.37
2018-10-21T18:49:43.525Z,10.33
2018-10-21T18:52:10.671Z,9.50
2018-10-21T18:54:37.697Z,10.17
2018-10-21T18:57:04.852Z,10.60
2018-10-21T18:59:31.924Z,11.23
2018-10-21T19:01:59.053Z,10.90
2018-10-21T19:04:26.248Z,11.17
2018-10-21T19:06:53.348Z,10.60
2018-10-21T19:09:22.920Z,11.93
2018-10-21T19:11:50.004Z,12.17
2018-10-21T19:14:17.133Z,19.40
2018-10-21T19:16:48.368Z,15.73
2018-10-21T19:19:15.549Z,18.67
2018-10-21T19:21:42.559Z,17.20
2018-10-21T19:24:09.661Z,16.70
2018-10-21T19:26:37.548Z,16.63
2018-10-21T19:29:04.679Z,16.80
2018-10-21T19:31:31.787Z,16.27
2018-10-21T19:33:58.968Z,16.87
2018-10-21T19:36:26.006Z,18.47
2018-10-21T19:38:53.092Z,17.93
2018-10-21T19:41:20.192Z,19.10
2018-10-21T19:43:47.276Z,19.73
2018-10-21T19:46:14.419Z,20.43
2018-10-21T19:48:41.471Z,18.33
2018-10-21T19:51:08.558Z,18.67
2018-10-21T19:53:35.640Z,16.03
2018-10-21T19:56:02.764Z,19.10
2018-10-21T19:58:29.914Z,18.53
2018-10-21T20:00:57.048Z,17.93
2018-10-21T20:03:24.084Z,16.17
2018-10-21T20:05:51.179Z,16.50
2018-10-21T20:08:18.269Z,15.83
2018-10-21T20:10:45.365Z,14.73
2018-10-21T20:13:12.507Z,17.00
2018-10-21T20:15:39.570Z,18.53
2018-10-21T20:18:06.659Z,24.67
2018-10-21T20:20:33.766Z,24.17
2018-10-21T20:23:00.848Z,21.43
2018-10-21T20:25:27.952Z,19.20
2018-10-21T20:27:55.115Z,21.03
2018-10-21T20:30:22.389Z,19.90
2018-10-21T20:32:49.572Z,19.17
2018-10-21T20:35:16.585Z,18.13
2018-10-21T20:37:44.468Z,18.27
2018-10-21T20:40:11.661Z,18.17
2018-10-21T20:42:38.681Z,19.17
2018-10-21T20:45:07.273Z,18.27
2018-10-21T20:47:34.365Z,18.27
2018-10-21T20:50:01.464Z,17.57
2018-10-21T20:52:28.593Z,17.00
2018-10-21T20:54:55.712Z,16.83
2018-10-21T20:57:22.800Z,16.80
2018-10-21T20:59:49.889Z,17.77
2018-10-21T21:02:17.008Z,16.73
2018-10-21T21:04:44.092Z,17.10
2018-10-21T21:07:11.256Z,17.80
2018-10-21T21:09:39.081Z,17.50
2018-10-21T21:12:06.269Z,17.60
2018-10-21T21:14:33.589Z,18.27
2018-10-21T21:17:01.051Z,17.50
2018-10-21T21:19:28.140Z,18.07
2018-10-21T21:21:55.248Z,17.63
2018-10-21T21:24:22.337Z,17.70
2018-10-21T21:26:49.433Z,18.03
2018-10-21T21:29:16.590Z,18.53
2018-10-21T21:31:44.453Z,18.50
2018-10-21T21:34:11.640Z,19.50
2018-10-21T21:36:38.714Z,18.73
2018-10-21T21:39:08.783Z,18.77
2018-10-21T21:41:35.899Z,19.53
2018-10-21T21:44:03.016Z,19.50
2018-10-21T21:46:30.189Z,17.40
2018-10-21T21:48:57.244Z,16.93
2018-10-21T21:51:24.324Z,16.93
2018-10-21T21:53:51.412Z,16.30
2018-10-21T21:56:18.524Z,16.67
2018-10-21T21:58:45.622Z,15.83
2018-10-21T22:01:12.732Z,16.87
2018-10-21T22:03:39.824Z,16.73
2018-10-21T22:06:06.986Z,16.87
2018-10-21T22:08:34.038Z,16.27
2018-10-21T22:11:01.125Z,16.43
2018-10-21T22:13:28.244Z,17.00
2018-10-21T22:15:55.349Z,16.83
2018-10-21T22:18:22.446Z,16.97
2018-10-21T22:20:49.568Z,17.10
2018-10-21T22:23:16.652Z,17.27
2018-10-21T22:25:43.748Z,17.37
2018-10-21T22:28:10.874Z,17.73
2018-10-21T22:30:37.944Z,18.47
2018-10-21T22:33:05.048Z,16.03
2018-10-21T22:35:32.146Z,18.10
2018-10-21T22:37:59.265Z,19.50
2018-10-21T22:40:26.348Z,17.73
2018-10-21T22:42:53.449Z,17.37
2018-10-21T22:45:20.536Z,17.10
2018-10-21T22:47:47.632Z,16.40
2018-10-21T22:50:14.721Z,18.67
2018-10-21T22:52:42.182Z,17.27
2018-10-21T22:55:09.331Z,16.53
2018-10-21T22:57:36.439Z,17.53
2018-10-21T23:00:04.650Z,17.17
2018-10-21T23:02:31.740Z,18.37
2018-10-21T23:04:58.825Z,18.57
2018-10-21T23:07:25.908Z,18.30
2018-10-21T23:09:52.984Z,17.43
2018-10-21T23:12:20.222Z,18.50
2018-10-21T23:14:47.191Z,18.53
2018-10-21T23:17:14.268Z,18.37
2018-10-21T23:19:43.479Z,18.57
2018-10-21T23:22:10.672Z,18.63
2018-10-21T23:24:38.388Z,18.70
2018-10-21T23:27:05.859Z,17.63
2018-10-21T23:29:32.948Z,17.20
2018-10-21T23:32:00.040Z,18.50
2018-10-21T23:34:27.414Z,17.40
2018-10-21T23:36:55.072Z,17.30
2018-10-21T23:39:22.161Z,18.63
2018-10-21T23:41:49.237Z,19.17
2018-10-21T23:44:16.620Z,18.87
2018-10-21T23:46:43.708Z,21.07
2018-10-21T23:49:10.792Z,19.90
2018-10-21T23:51:37.873Z,20.17
2018-10-21T23:54:05.016Z,19.50
2018-10-21T23:56:32.164Z,19.37
2018-10-21T23:58:59.248Z,20.87
